Time;durP1;ratioP1;P1;durP2;ratioP2;P2;SDS_P1;SDS_P2;PMS_P1;PMS_P2;Temp;Humidity;BMP_temperature;BMP_pressure;BME280_temperature;BME280_humidity;BME280_pressure;Samples;Min_cycle;Max_cycle;Signal;HPM_P1;HPM_P2
2021/05/14 00:01:33;;;;;;;2.80;1.60;;;;;;;;;;5117762;28;20036;-84
2021/05/14 00:03:59;;;;;;;3.45;1.67;;;;;;;;;;5116630;28;20051;-84
2021/05/14 00:06:25;;;;;;;4.82;1.95;;;;;;;;;;5116832;28;20024;-86
2021/05/14 00:08:51;;;;;;;7.68;1.80;;;;;;;;;;5117794;28;20020;-84
2021/05/14 00:11:17;;;;;;;3.85;1.50;;;;;;;;;;5116089;28;20023;-84
2021/05/14 00:13:43;;;;;;;3.85;1.65;;;;;;;;;;5117160;28;20024;-84
2021/05/14 00:16:10;;;;;;;5.35;1.98;;;;;;;;;;5117690;28;20313;-84
2021/05/14 00:18:36;;;;;;;4.88;2.25;;;;;;;;;;5117486;28;20401;-84
2021/05/14 00:21:02;;;;;;;2.22;1.27;;;;;;;;;;5118942;27;20282;-84
2021/05/14 00:23:28;;;;;;;3.55;1.30;;;;;;;;;;5121168;28;20027;-85
2021/05/14 00:28:57;;;;;;;2.60;1.20;;;;;;;;;;5120991;28;20042;-83
2021/05/14 00:31:23;;;;;;;5.57;1.65;;;;;;;;;;5120820;28;20042;-83
2021/05/14 00:33:50;;;;;;;3.10;1.40;;;;;;;;;;5120865;28;20020;-84
2021/05/14 00:36:16;;;;;;;4.75;1.42;;;;;;;;;;5121053;28;20016;-84
2021/05/14 00:38:42;;;;;;;4.68;1.38;;;;;;;;;;5120067;28;20015;-85
2021/05/14 00:41:08;;;;;;;2.60;1.65;;;;;;;;;;5121390;28;20024;-84
2021/05/14 00:43:34;;;;;;;6.03;1.60;;;;;;;;;;5121218;28;20028;-85
2021/05/14 00:46:03;;;;;;;8.00;1.85;;;;;;;;;;5119720;28;20118;-83
2021/05/14 00:48:30;;;;;;;4.30;1.60;;;;;;;;;;5120701;28;20044;-83
2021/05/14 00:50:56;;;;;;;3.78;1.92;;;;;;;;;;5120590;28;20034;-84
2021/05/14 00:53:22;;;;;;;2.00;1.52;;;;;;;;;;5120572;28;20110;-83
2021/05/14 00:55:49;;;;;;;4.85;2.05;;;;;;;;;;5120162;28;20055;-82
2021/05/14 00:58:15;;;;;;;4.05;1.70;;;;;;;;;;5120549;28;20015;-84
2021/05/14 01:00:41;;;;;;;3.60;1.58;;;;;;;;;;5119540;28;20043;-85
2021/05/14 01:03:13;;;;;;;5.00;1.92;;;;;;;;;;5119437;28;20016;-85
2021/05/14 01:05:39;;;;;;;3.95;1.50;;;;;;;;;;5120519;28;20111;-86
2021/05/14 01:08:05;;;;;;;2.30;1.50;;;;;;;;;;5120817;28;20024;-87
2021/05/14 01:10:33;;;;;;;2.50;1.80;;;;;;;;;;5120585;28;20023;-86
2021/05/14 01:12:59;;;;;;;3.75;1.67;;;;;;;;;;5120586;28;20024;-85
2021/05/14 01:15:25;;;;;;;3.65;1.70;;;;;;;;;;5118748;28;20071;-85
2021/05/14 01:17:51;;;;;;;6.85;2.30;;;;;;;;;;5120685;28;20023;-85
2021/05/14 01:20:17;;;;;;;6.80;1.60;;;;;;;;;;5120321;28;20038;-86
2021/05/14 01:22:44;;;;;;;4.93;1.80;;;;;;;;;;5120763;28;20103;-86
2021/05/14 01:25:30;;;;;;;2.88;1.90;;;;;;;;;;5120350;28;20064;-86
2021/05/14 01:27:56;;;;;;;3.25;2.00;;;;;;;;;;5119787;28;20023;-83
2021/05/14 01:30:22;;;;;;;3.85;2.08;;;;;;;;;;5118631;28;20020;-83
2021/05/14 01:32:48;;;;;;;6.60;2.20;;;;;;;;;;5117851;28;20115;-83
2021/05/14 01:35:14;;;;;;;5.07;2.00;;;;;;;;;;5119558;28;20015;-84
2021/05/14 01:37:41;;;;;;;3.80;1.70;;;;;;;;;;5119653;28;20016;-83
2021/05/14 01:43:11;;;;;;;5.45;2.30;;;;;;;;;;5119911;28;20030;-83
2021/05/14 01:45:37;;;;;;;4.80;2.20;;;;;;;;;;5118547;28;20030;-83
2021/05/14 01:48:03;;;;;;;3.17;2.00;;;;;;;;;;5119219;28;20043;-84
2021/05/14 01:50:29;;;;;;;6.15;2.13;;;;;;;;;;5119400;28;20425;-84
2021/05/14 01:52:55;;;;;;;5.57;2.38;;;;;;;;;;5119316;28;20016;-83
2021/05/14 01:55:40;;;;;;;4.00;2.15;;;;;;;;;;5118104;28;20039;-85
2021/05/14 01:58:06;;;;;;;4.13;2.13;;;;;;;;;;5119156;28;20121;-83
2021/05/14 02:00:33;;;;;;;3.80;2.10;;;;;;;;;;5118474;28;20149;-84
2021/05/14 02:02:59;;;;;;;4.97;2.17;;;;;;;;;;5119418;28;20092;-84
2021/05/14 02:05:25;;;;;;;3.92;2.20;;;;;;;;;;5119370;28;20026;-83
2021/05/14 02:07:52;;;;;;;3.95;1.95;;;;;;;;;;5119093;28;20024;-84
2021/05/14 02:10:36;;;;;;;6.22;2.30;;;;;;;;;;5109603;28;20298;-83
2021/05/14 02:13:02;;;;;;;2.83;1.83;;;;;;;;;;5098911;28;20024;-84
2021/05/14 02:15:28;;;;;;;3.58;2.25;;;;;;;;;;5098871;28;20032;-84
2021/05/14 02:17:54;;;;;;;6.22;2.60;;;;;;;;;;5098814;28;20028;-84
2021/05/14 02:20:20;;;;;;;5.68;2.45;;;;;;;;;;5097040;28;20034;-84
2021/05/14 02:22:46;;;;;;;3.90;2.15;;;;;;;;;;5116940;28;20397;-83
2021/05/14 02:25:21;;;;;;;5.97;2.17;;;;;;;;;;5118775;28;20192;-84
2021/05/14 02:27:47;;;;;;;4.38;2.20;;;;;;;;;;5117599;28;20069;-83
2021/05/14 02:30:14;;;;;;;6.32;2.20;;;;;;;;;;5118895;28;20250;-84
2021/05/14 02:32:40;;;;;;;5.88;2.50;;;;;;;;;;5118670;28;20019;-84
2021/05/14 02:35:06;;;;;;;6.68;2.65;;;;;;;;;;5118555;28;20024;-84
2021/05/14 02:37:32;;;;;;;5.60;2.95;;;;;;;;;;5118692;28;20039;-84
2021/05/14 02:39:58;;;;;;;3.75;2.90;;;;;;;;;;5118418;28;20105;-84
2021/05/14 02:42:24;;;;;;;3.60;2.53;;;;;;;;;;5118399;28;20023;-82
2021/05/14 02:44:51;;;;;;;4.97;2.20;;;;;;;;;;5118748;28;20061;-85
2021/05/14 02:47:17;;;;;;;6.05;2.50;;;;;;;;;;5116927;28;20039;-83
2021/05/14 02:49:43;;;;;;;4.32;2.42;;;;;;;;;;5118649;28;20023;-84
2021/05/14 02:52:09;;;;;;;6.57;2.78;;;;;;;;;;5131221;27;20047;-83
2021/05/14 02:54:37;;;;;;;6.55;2.70;;;;;;;;;;5137736;27;20031;-81
2021/05/14 02:57:04;;;;;;;6.95;3.00;;;;;;;;;;5138705;27;20436;-82
2021/05/14 02:59:30;;;;;;;6.25;3.17;;;;;;;;;;5138442;27;20110;-82
2021/05/14 03:01:56;;;;;;;6.82;2.70;;;;;;;;;;5138985;27;20030;-85
2021/05/14 03:04:22;;;;;;;6.93;2.50;;;;;;;;;;5139116;27;20019;-85
2021/05/14 03:06:48;;;;;;;5.45;2.90;;;;;;;;;;5137494;27;20031;-85
2021/05/14 03:09:15;;;;;;;5.43;2.72;;;;;;;;;;5139230;27;20023;-86
2021/05/14 03:11:41;;;;;;;3.95;2.83;;;;;;;;;;5138746;27;20427;-83
2021/05/14 03:14:07;;;;;;;5.82;2.63;;;;;;;;;;5137490;27;20028;-83
2021/05/14 03:16:34;;;;;;;6.47;2.80;;;;;;;;;;5138544;27;20019;-83
2021/05/14 03:19:00;;;;;;;4.85;2.58;;;;;;;;;;5138727;27;20023;-83
2021/05/14 03:21:27;;;;;;;6.38;2.55;;;;;;;;;;5130357;27;20039;-84
2021/05/14 03:23:53;;;;;;;6.75;2.60;;;;;;;;;;5117918;28;20031;-83
2021/05/14 03:26:19;;;;;;;5.50;2.42;;;;;;;;;;5116915;28;20024;-84
2021/05/14 03:28:45;;;;;;;7.13;2.70;;;;;;;;;;5117921;28;20051;-84
2021/05/14 03:31:11;;;;;;;3.55;2.33;;;;;;;;;;5117968;28;20034;-84
2021/05/14 03:33:37;;;;;;;4.38;2.58;;;;;;;;;;5116683;28;20041;-84
2021/05/14 03:36:05;;;;;;;5.20;3.40;;;;;;;;;;5118180;28;20030;-84
2021/05/14 03:38:33;;;;;;;6.40;4.13;;;;;;;;;;5118150;28;20286;-86
2021/05/14 03:41:01;;;;;;;6.20;4.15;;;;;;;;;;5118361;28;20024;-84
2021/05/14 03:43:27;;;;;;;7.18;5.50;;;;;;;;;;5118074;28;20312;-84
2021/05/14 03:45:53;;;;;;;5.68;3.95;;;;;;;;;;5117733;28;20024;-84
2021/05/14 03:48:20;;;;;;;4.45;3.00;;;;;;;;;;5117585;28;20035;-84
2021/05/14 03:50:50;;;;;;;7.20;3.28;;;;;;;;;;5117644;28;20019;-84
2021/05/14 03:53:16;;;;;;;8.48;2.63;;;;;;;;;;5116578;28;20020;-85
2021/05/14 03:55:43;;;;;;;7.13;2.70;;;;;;;;;;5119089;28;20039;-85
2021/05/14 03:58:09;;;;;;;6.20;2.72;;;;;;;;;;5121797;28;20309;-85
2021/05/14 04:00:35;;;;;;;6.45;2.63;;;;;;;;;;5121994;28;20020;-85
2021/05/14 04:03:01;;;;;;;7.10;2.67;;;;;;;;;;5121723;28;20099;-83
2021/05/14 04:05:27;;;;;;;5.20;2.03;;;;;;;;;;5121296;28;20023;-83
2021/05/14 04:07:54;;;;;;;10.95;2.65;;;;;;;;;;5121607;28;20065;-84
2021/05/14 04:15:46;;;;;;;4.95;2.78;;;;;;;;;;5121346;28;20034;-82
2021/05/14 04:18:12;;;;;;;3.95;2.60;;;;;;;;;;5120963;28;20016;-82
2021/05/14 04:20:38;;;;;;;7.30;2.78;;;;;;;;;;5121000;28;20112;-83
2021/05/14 04:23:04;;;;;;;4.13;2.50;;;;;;;;;;5101115;28;20111;-83
2021/05/14 04:25:36;;;;;;;5.97;2.70;;;;;;;;;;5100740;28;20069;-84
2021/05/14 04:31:15;;;;;;;5.53;2.50;;;;;;;;;;5100744;28;20416;-84
2021/05/14 04:33:42;;;;;;;4.50;2.63;;;;;;;;;;5100115;28;20034;-82
2021/05/14 04:36:08;;;;;;;5.75;2.40;;;;;;;;;;5100260;28;20031;-83
2021/05/14 04:38:34;;;;;;;7.53;3.05;;;;;;;;;;5100087;28;20028;-82
2021/05/14 04:41:12;;;;;;;7.00;2.53;;;;;;;;;;5100600;28;20054;-83
2021/05/14 04:43:38;;;;;;;5.00;2.58;;;;;;;;;;5100124;28;20098;-83
2021/05/14 04:46:04;;;;;;;5.75;2.53;;;;;;;;;;5099886;28;20067;-82
2021/05/14 04:48:30;;;;;;;8.98;2.75;;;;;;;;;;5099872;28;20044;-82
2021/05/14 04:50:56;;;;;;;4.90;2.22;;;;;;;;;;5101433;28;20027;-83
2021/05/14 04:53:29;;;;;;;4.53;2.20;;;;;;;;;;5120551;28;20047;-84
2021/05/14 04:55:55;;;;;;;7.28;2.63;;;;;;;;;;5120959;28;20019;-84
2021/05/14 04:58:21;;;;;;;6.82;3.08;;;;;;;;;;5120576;28;20028;-84
2021/05/14 05:00:47;;;;;;;9.13;3.08;;;;;;;;;;5120607;28;20049;-85
2021/05/14 05:03:13;;;;;;;5.60;2.75;;;;;;;;;;5120571;28;20062;-85
2021/05/14 05:05:40;;;;;;;7.85;2.42;;;;;;;;;;5120150;28;20099;-84
2021/05/14 05:08:06;;;;;;;7.25;2.70;;;;;;;;;;5120001;28;20020;-84
2021/05/14 05:10:32;;;;;;;6.47;2.90;;;;;;;;;;5120253;28;20028;-84
2021/05/14 05:12:58;;;;;;;7.05;2.60;;;;;;;;;;5119422;28;20019;-84
2021/05/14 05:15:24;;;;;;;5.03;2.45;;;;;;;;;;5119165;28;20130;-84
2021/05/14 05:17:50;;;;;;;8.55;3.53;;;;;;;;;;5119340;28;20058;-85
2021/05/14 05:20:16;;;;;;;4.50;3.08;;;;;;;;;;5120280;28;20129;-85
2021/05/14 05:22:42;;;;;;;4.85;2.80;;;;;;;;;;5119173;28;20439;-84
2021/05/14 05:25:08;;;;;;;6.35;3.35;;;;;;;;;;5120584;28;20046;-87
2021/05/14 05:27:35;;;;;;;6.25;2.90;;;;;;;;;;5120258;28;20031;-88
2021/05/14 05:30:01;;;;;;;8.82;3.70;;;;;;;;;;5120460;28;20023;-87
2021/05/14 05:32:27;;;;;;;4.93;2.88;;;;;;;;;;5120268;28;20428;-86
2021/05/14 05:34:53;;;;;;;5.40;2.83;;;;;;;;;;5119857;28;20016;-86
2021/05/14 05:37:21;;;;;;;10.32;4.50;;;;;;;;;;5120333;28;20027;-86
2021/05/14 05:39:47;;;;;;;4.32;2.25;;;;;;;;;;5104517;27;20028;-86
2021/05/14 05:42:32;;;;;;;6.13;3.38;;;;;;;;;;5099284;28;20020;-84
2021/05/14 05:44:58;;;;;;;11.02;4.88;;;;;;;;;;5099198;28;20028;-83
2021/05/14 05:47:24;;;;;;;9.38;4.80;;;;;;;;;;5097937;28;20047;-85
2021/05/14 05:49:50;;;;;;;7.90;4.68;;;;;;;;;;5098296;28;20401;-87
2021/05/14 05:52:16;;;;;;;7.55;4.20;;;;;;;;;;5108265;28;20119;-84
2021/05/14 05:54:42;;;;;;;7.95;4.15;;;;;;;;;;5106894;28;20051;-79
2021/05/14 05:57:08;;;;;;;11.02;4.97;;;;;;;;;;5098501;28;20024;-79
2021/05/14 05:59:35;;;;;;;7.55;4.20;;;;;;;;;;5098458;28;20028;-79
2021/05/14 06:02:02;;;;;;;9.13;4.53;;;;;;;;;;5098882;28;20348;-79
2021/05/14 06:04:28;;;;;;;6.57;4.63;;;;;;;;;;5097007;28;20034;-79
2021/05/14 06:06:54;;;;;;;9.93;4.95;;;;;;;;;;5099524;28;20035;-79
2021/05/14 06:09:20;;;;;;;13.07;8.05;;;;;;;;;;5098188;28;20020;-78
2021/05/14 06:11:46;;;;;;;9.27;4.63;;;;;;;;;;5097950;28;20028;-79
2021/05/14 06:14:12;;;;;;;8.02;4.43;;;;;;;;;;5106864;28;20041;-79
2021/05/14 06:16:38;;;;;;;8.02;4.85;;;;;;;;;;5098104;28;20024;-79
2021/05/14 06:19:14;;;;;;;8.85;4.32;;;;;;;;;;5097814;28;20024;-79
2021/05/14 06:21:48;;;;;;;7.55;4.55;;;;;;;;;;5098228;28;20042;-79
2021/05/14 06:24:15;;;;;;;8.75;4.13;;;;;;;;;;5096542;28;20110;-79
2021/05/14 06:26:41;;;;;;;9.27;4.00;;;;;;;;;;5097886;28;20031;-79
2021/05/14 06:29:08;;;;;;;6.82;4.13;;;;;;;;;;5097858;28;20411;-79
2021/05/14 06:31:34;;;;;;;8.45;3.95;;;;;;;;;;5097459;28;20036;-79
2021/05/14 06:34:00;;;;;;;7.78;3.95;;;;;;;;;;5097369;28;20024;-78
2021/05/14 06:36:27;;;;;;;8.05;4.50;;;;;;;;;;5114645;28;20020;-79
2021/05/14 06:38:53;;;;;;;9.70;5.25;;;;;;;;;;5118027;28;20030;-79
2021/05/14 06:41:19;;;;;;;8.75;5.00;;;;;;;;;;5117881;28;20020;-79
2021/05/14 06:43:45;;;;;;;9.93;5.53;;;;;;;;;;5117662;28;20032;-78
2021/05/14 06:46:11;;;;;;;5.57;3.28;;;;;;;;;;5117664;28;20023;-79
2021/05/14 06:48:37;;;;;;;7.03;3.33;;;;;;;;;;5117340;28;20118;-79
2021/05/14 06:51:04;;;;;;;7.78;3.35;;;;;;;;;;5118109;28;20050;-78
2021/05/14 06:53:30;;;;;;;5.30;2.97;;;;;;;;;;5117389;28;20026;-79
2021/05/14 06:55:57;;;;;;;12.25;4.88;;;;;;;;;;5117804;28;20028;-79
2021/05/14 06:58:23;;;;;;;7.47;3.38;;;;;;;;;;5110205;28;20030;-80
2021/05/14 07:00:49;;;;;;;6.20;2.63;;;;;;;;;;5108576;28;20068;-78
2021/05/14 07:03:15;;;;;;;10.90;6.55;;;;;;;;;;5117552;28;20310;-78
2021/05/14 07:05:41;;;;;;;12.35;7.35;;;;;;;;;;5117691;28;20278;-78
2021/05/14 07:08:07;;;;;;;10.10;5.28;;;;;;;;;;5117623;28;20071;-79
2021/05/14 07:10:34;;;;;;;13.10;5.20;;;;;;;;;;5117597;28;20032;-79
2021/05/14 07:13:00;;;;;;;6.38;3.50;;;;;;;;;;5116407;28;20024;-78
2021/05/14 07:15:26;;;;;;;6.85;3.00;;;;;;;;;;5117363;28;20027;-81
2021/05/14 07:17:53;;;;;;;5.28;3.22;;;;;;;;;;5117557;28;20061;-79
2021/05/14 07:20:20;;;;;;;6.63;2.90;;;;;;;;;;5117500;28;20016;-79
2021/05/14 07:22:46;;;;;;;16.55;9.88;;;;;;;;;;5117663;28;20039;-79
2021/05/14 07:25:12;;;;;;;6.43;2.60;;;;;;;;;;5117431;28;20062;-81
2021/05/14 07:27:39;;;;;;;8.98;4.30;;;;;;;;;;5117142;28;20032;-79
2021/05/14 07:30:06;;;;;;;5.85;1.88;;;;;;;;;;5116558;28;20358;-79
2021/05/14 07:32:32;;;;;;;6.88;2.67;;;;;;;;;;5117319;28;20028;-79
2021/05/14 07:34:58;;;;;;;41.53;25.23;;;;;;;;;;5117251;28;20015;-81
2021/05/14 07:37:24;;;;;;;50.20;34.90;;;;;;;;;;5117411;28;20035;-81
2021/05/14 07:39:50;;;;;;;35.38;23.80;;;;;;;;;;5115068;28;20020;-81
2021/05/14 07:42:16;;;;;;;19.17;10.80;;;;;;;;;;5116524;28;20035;-81
2021/05/14 07:44:44;;;;;;;41.72;28.55;;;;;;;;;;5111196;28;20032;-81
2021/05/14 07:47:11;;;;;;;56.55;38.20;;;;;;;;;;5095969;28;20046;-80
2021/05/14 07:49:37;;;;;;;19.38;14.60;;;;;;;;;;5097215;28;20287;-81
2021/05/14 07:52:03;;;;;;;14.13;8.85;;;;;;;;;;5097297;28;20024;-80
2021/05/14 07:54:29;;;;;;;14.27;8.73;;;;;;;;;;5096928;28;20047;-81
2021/05/14 07:56:55;;;;;;;23.15;14.95;;;;;;;;;;5116148;28;20061;-81
2021/05/14 07:59:22;;;;;;;29.73;19.33;;;;;;;;;;5117003;28;20125;-81
2021/05/14 08:01:48;;;;;;;50.85;35.65;;;;;;;;;;5117472;28;20108;-81
2021/05/14 08:04:14;;;;;;;16.98;11.18;;;;;;;;;;5117349;28;20024;-81
2021/05/14 08:06:40;;;;;;;35.15;24.25;;;;;;;;;;5117174;28;20028;-81
2021/05/14 08:09:08;;;;;;;18.90;11.63;;;;;;;;;;5117352;28;20024;-81
2021/05/14 08:11:34;;;;;;;27.77;17.27;;;;;;;;;;5116152;28;20344;-82
2021/05/14 08:14:00;;;;;;;14.60;9.68;;;;;;;;;;5113371;28;20028;-81
2021/05/14 08:16:27;;;;;;;8.52;3.55;;;;;;;;;;5115937;28;20019;-81
2021/05/14 08:18:53;;;;;;;17.27;9.35;;;;;;;;;;5095787;28;20040;-81
2021/05/14 08:21:22;;;;;;;20.08;10.90;;;;;;;;;;5096862;28;20024;-78
2021/05/14 08:23:49;;;;;;;11.63;6.82;;;;;;;;;;5096721;28;20036;-79
2021/05/14 08:26:15;;;;;;;12.75;7.78;;;;;;;;;;5096680;28;20306;-79
2021/05/14 08:28:41;;;;;;;19.60;12.75;;;;;;;;;;5096264;28;20048;-79
2021/05/14 08:31:08;;;;;;;12.98;8.65;;;;;;;;;;5096767;28;20028;-78
2021/05/14 08:33:34;;;;;;;8.10;4.75;;;;;;;;;;5096786;28;20294;-78
2021/05/14 08:36:00;;;;;;;14.38;9.82;;;;;;;;;;5096670;28;20057;-79
2021/05/14 08:38:26;;;;;;;19.70;12.65;;;;;;;;;;5096574;28;20091;-79
2021/05/14 08:40:53;;;;;;;7.82;4.07;;;;;;;;;;5097788;28;20093;-79
2021/05/14 08:43:19;;;;;;;6.90;3.50;;;;;;;;;;5099803;28;20437;-78
2021/05/14 08:45:45;;;;;;;11.13;6.30;;;;;;;;;;5099981;28;20020;-79
2021/05/14 08:48:12;;;;;;;8.32;3.30;;;;;;;;;;5099936;28;20054;-79
2021/05/14 08:50:39;;;;;;;9.05;5.28;;;;;;;;;;5100199;28;20111;-79
2021/05/14 08:53:05;;;;;;;7.85;2.95;;;;;;;;;;5099856;28;20099;-78
2021/05/14 08:55:32;;;;;;;7.50;3.45;;;;;;;;;;5099759;28;20062;-79
2021/05/14 08:57:58;;;;;;;5.78;3.20;;;;;;;;;;5099650;28;20082;-79
2021/05/14 09:00:25;;;;;;;3.13;2.20;;;;;;;;;;5099706;28;20326;-79
2021/05/14 09:02:53;;;;;;;6.45;2.15;;;;;;;;;;5100007;28;20024;-78
2021/05/14 09:05:26;;;;;;;6.75;3.15;;;;;;;;;;5099850;28;20074;-78
2021/05/14 09:07:55;;;;;;;6.45;3.35;;;;;;;;;;5098310;28;20326;-80
2021/05/14 09:10:21;;;;;;;8.48;5.97;;;;;;;;;;5099942;28;20137;-80
2021/05/14 09:12:47;;;;;;;4.15;2.50;;;;;;;;;;5098489;28;20051;-81
2021/05/14 09:15:26;;;;;;;3.53;1.60;;;;;;;;;;5099342;28;20024;-81
2021/05/14 09:18:12;;;;;;;6.10;2.33;;;;;;;;;;5099706;28;20395;-81
2021/05/14 09:20:48;;;;;;;2.88;1.65;;;;;;;;;;5017659;28;20126;-81
2021/05/14 09:23:23;;;;;;;5.10;1.98;;;;;;;;;;5017610;28;20036;-82
2021/05/14 09:25:50;;;;;;;2.88;1.58;;;;;;;;;;5004705;28;20041;-81
2021/05/14 09:28:42;;;;;;;7.28;2.63;;;;;;;;;;5020485;28;20064;-81
2021/05/14 09:31:08;;;;;;;;;;;;;;;;;;5035035;28;20366;-80
2021/05/14 09:33:36;;;;;;;8.27;3.40;;;;;;;;;;5037168;28;19909;-81
2021/05/14 09:36:04;;;;;;;5.13;3.00;;;;;;;;;;5037167;28;20025;-81
2021/05/14 09:38:38;;;;;;;5.38;2.33;;;;;;;;;;5036800;28;20029;-79
2021/05/14 09:41:04;;;;;;;6.60;1.80;;;;;;;;;;5036934;28;20053;-80
2021/05/14 09:43:30;;;;;;;4.85;1.80;;;;;;;;;;5036503;28;20029;-80
2021/05/14 09:45:56;;;;;;;6.25;2.03;;;;;;;;;;5036894;28;20041;-79
2021/05/14 09:48:26;;;;;;;4.25;1.75;;;;;;;;;;5036582;28;20042;-80
2021/05/14 09:50:52;;;;;;;3.08;1.50;;;;;;;;;;5036059;28;20055;-79
2021/05/14 09:53:21;;;;;;;8.88;2.80;;;;;;;;;;5036269;28;20443;-82
2021/05/14 09:55:51;;;;;;;4.20;2.00;;;;;;;;;;5036325;28;20030;-81
2021/05/14 09:58:30;;;;;;;3.85;1.67;;;;;;;;;;5082714;28;20059;-81
2021/05/14 10:00:56;;;;;;;3.05;1.27;;;;;;;;;;5114787;28;20019;-81
2021/05/14 10:03:25;;;;;;;3.10;1.48;;;;;;;;;;5117038;28;20023;-80
2021/05/14 10:05:51;;;;;;;9.82;3.38;;;;;;;;;;5097485;28;20425;-82
2021/05/14 10:08:23;;;;;;;6.20;1.15;;;;;;;;;;5103145;28;20027;-81
2021/05/14 10:10:50;;;;;;;3.35;1.20;;;;;;;;;;5098626;28;20303;-81
2021/05/14 10:13:17;;;;;;;1.70;1.00;;;;;;;;;;5100891;28;20436;-80
2021/05/14 10:15:43;;;;;;;3.13;1.40;;;;;;;;;;5112223;28;20031;-80
2021/05/14 10:18:16;;;;;;;2.10;1.05;;;;;;;;;;5096952;28;20028;-80
2021/05/14 10:20:44;;;;;;;1.92;0.80;;;;;;;;;;5098247;28;20103;-80
2021/05/14 10:23:12;;;;;;;1.95;0.88;;;;;;;;;;5098219;28;20046;-80
2021/05/14 10:25:46;;;;;;;3.10;1.00;;;;;;;;;;5098435;28;20390;-80
2021/05/14 10:28:24;;;;;;;4.72;1.50;;;;;;;;;;5096531;28;20042;-80
2021/05/14 10:31:09;;;;;;;1.90;0.77;;;;;;;;;;5098305;28;20028;-80
2021/05/14 10:33:40;;;;;;;2.28;1.20;;;;;;;;;;5096607;28;20032;-81
2021/05/14 10:36:15;;;;;;;3.08;1.50;;;;;;;;;;5098186;28;20031;-81
2021/05/14 10:38:41;;;;;;;4.95;1.20;;;;;;;;;;5097903;28;20016;-80
2021/05/14 10:41:26;;;;;;;5.80;1.85;;;;;;;;;;5098123;28;20279;-80
2021/05/14 10:44:01;;;;;;;3.70;1.33;;;;;;;;;;5097697;28;20020;-81
2021/05/14 10:46:28;;;;;;;5.47;2.72;;;;;;;;;;5097748;28;20422;-81
2021/05/14 10:49:00;;;;;;;3.83;0.93;;;;;;;;;;5097893;28;20044;-81
2021/05/14 10:51:45;;;;;;;4.32;1.20;;;;;;;;;;5097700;28;20051;-81
2021/05/14 10:54:31;;;;;;;2.75;0.80;;;;;;;;;;5097583;28;20424;-81
2021/05/14 10:56:57;;;;;;;3.13;1.17;;;;;;;;;;5097633;28;20031;-81
2021/05/14 10:59:34;;;;;;;2.00;0.68;;;;;;;;;;5097798;28;20115;-80
2021/05/14 11:02:00;;;;;;;2.55;0.82;;;;;;;;;;5097456;28;20410;-81
2021/05/14 11:04:40;;;;;;;4.07;0.80;;;;;;;;;;5096408;28;20034;-80
2021/05/14 11:07:06;;;;;;;3.42;0.80;;;;;;;;;;5097429;28;20054;-81
2021/05/14 11:09:32;;;;;;;2.88;0.90;;;;;;;;;;5096408;28;20111;-81
2021/05/14 11:12:03;;;;;;;2.47;1.10;;;;;;;;;;5097769;28;20044;-81
2021/05/14 11:14:41;;;;;;;3.67;1.27;;;;;;;;;;5097243;28;20032;-80
2021/05/14 11:17:11;;;;;;;5.90;1.90;;;;;;;;;;5097261;28;20016;-81
2021/05/14 11:19:51;;;;;;;1.00;0.77;;;;;;;;;;5096297;28;20035;-81
2021/05/14 11:22:17;;;;;;;5.47;1.20;;;;;;;;;;5095659;28;20035;-81
2021/05/14 11:24:48;;;;;;;3.47;1.10;;;;;;;;;;5097439;28;20044;-81
2021/05/14 11:27:18;;;;;;;3.75;1.67;;;;;;;;;;5097111;28;20020;-80
2021/05/14 11:29:52;;;;;;;6.80;1.67;;;;;;;;;;5097318;28;20387;-81
2021/05/14 11:32:21;;;;;;;2.42;1.13;;;;;;;;;;5097288;28;20066;-81
2021/05/14 11:34:53;;;;;;;4.53;1.20;;;;;;;;;;5097100;28;20097;-80
2021/05/14 11:37:25;;;;;;;3.10;1.20;;;;;;;;;;5097160;28;20042;-80
2021/05/14 11:39:51;;;;;;;4.35;1.15;;;;;;;;;;5096994;28;20313;-81
2021/05/14 11:42:18;;;;;;;8.80;1.58;;;;;;;;;;5097088;28;20114;-81
2021/05/14 11:45:14;;;;;;;4.82;1.23;;;;;;;;;;5097279;28;20058;-81
2021/05/14 11:47:50;;;;;;;5.78;1.33;;;;;;;;;;4998602;28;20053;-81
2021/05/14 11:50:21;;;;;;;9.00;1.15;;;;;;;;;;5015082;28;20455;-80
2021/05/14 11:52:48;;;;;;;3.25;0.98;;;;;;;;;;4998871;28;20046;-81
2021/05/14 11:55:15;;;;;;;3.85;1.10;;;;;;;;;;4998709;28;20400;-80
2021/05/14 11:57:45;;;;;;;3.35;1.35;;;;;;;;;;5014998;28;20054;-80
2021/05/14 12:00:12;;;;;;;4.20;1.63;;;;;;;;;;4998759;28;20041;-80
2021/05/14 12:02:41;;;;;;;2.70;1.35;;;;;;;;;;5015186;28;20064;-80
2021/05/14 12:05:09;;;;;;;4.88;1.45;;;;;;;;;;5015109;28;20446;-80
2021/05/14 12:07:35;;;;;;;7.43;4.20;;;;;;;;;;4998681;28;20358;-80
2021/05/14 12:10:04;;;;;;;4.80;2.88;;;;;;;;;;5015078;28;20065;-80
2021/05/14 12:12:30;;;;;;;6.28;3.50;;;;;;;;;;4998623;28;20427;-80
2021/05/14 12:15:14;;;;;;;23.75;14.63;;;;;;;;;;5014832;28;20036;-80
2021/05/14 12:17:40;;;;;;;8.88;4.80;;;;;;;;;;5018792;28;20030;-80
2021/05/14 12:20:25;;;;;;;10.48;5.90;;;;;;;;;;5018680;28;20022;-80
2021/05/14 12:22:51;;;;;;;7.70;3.05;;;;;;;;;;5003764;28;20057;-80
2021/05/14 12:25:18;;;;;;;20.38;11.77;;;;;;;;;;5100575;28;20020;-80
2021/05/14 12:27:44;;;;;;;5.75;2.65;;;;;;;;;;5100202;28;20344;-80
2021/05/14 12:30:11;;;;;;;3.30;1.45;;;;;;;;;;5100449;28;20036;-81
2021/05/14 12:32:38;;;;;;;5.40;1.13;;;;;;;;;;5099300;28;20031;-80
2021/05/14 12:35:08;;;;;;;5.82;3.33;;;;;;;;;;5100412;28;20077;-80
2021/05/14 12:37:34;;;;;;;10.05;5.90;;;;;;;;;;5100158;28;20406;-80
2021/05/14 12:40:01;;;;;;;8.40;4.70;;;;;;;;;;5100255;28;20069;-80
2021/05/14 12:42:28;;;;;;;5.13;1.80;;;;;;;;;;5100343;28;20020;-80
2021/05/14 12:44:56;;;;;;;7.95;4.57;;;;;;;;;;5099954;28;20418;-81
2021/05/14 12:47:23;;;;;;;6.22;2.40;;;;;;;;;;5099970;28;20097;-80
2021/05/14 12:49:53;;;;;;;7.00;3.35;;;;;;;;;;5100028;28;20066;-81
2021/05/14 12:52:22;;;;;;;10.20;1.70;;;;;;;;;;5100196;28;20287;-80
2021/05/14 12:55:12;;;;;;;12.13;2.55;;;;;;;;;;5098487;28;20067;-80
2021/05/14 12:57:40;;;;;;;2.33;1.00;;;;;;;;;;5099871;28;20069;-80
2021/05/14 13:00:17;;;;;;;4.78;1.70;;;;;;;;;;5099939;28;20028;-81
2021/05/14 13:03:03;;;;;;;6.43;2.40;;;;;;;;;;5098669;28;20027;-81
2021/05/14 13:05:52;;;;;;;5.78;1.88;;;;;;;;;;5099528;28;20028;-81
2021/05/14 13:08:23;;;;;;;3.40;1.90;;;;;;;;;;5099700;28;20028;-81
2021/05/14 13:10:54;;;;;;;4.35;1.48;;;;;;;;;;5100021;28;20028;-81
2021/05/14 13:13:21;;;;;;;;;;;;;;;;;;5098531;28;20073;-81
2021/05/14 13:15:51;;;;;;;7.25;3.80;;;;;;;;;;5099390;28;20243;-80
2021/05/14 13:18:26;;;;;;;3.55;1.70;;;;;;;;;;5099469;28;20031;-80
2021/05/14 13:20:53;;;;;;;7.18;1.17;;;;;;;;;;5099150;28;20062;-80
2021/05/14 13:23:19;;;;;;;4.68;1.67;;;;;;;;;;5099452;28;20031;-80
2021/05/14 13:25:52;;;;;;;3.28;1.60;;;;;;;;;;5099717;28;20142;-80
2021/05/14 13:28:21;;;;;;;12.95;1.17;;;;;;;;;;5098170;28;20080;-80
2021/05/14 13:30:48;;;;;;;3.50;1.13;;;;;;;;;;5099286;28;20025;-80
2021/05/14 13:33:14;;;;;;;2.38;1.15;;;;;;;;;;5097797;28;20036;-80
2021/05/14 13:35:40;;;;;;;4.00;2.05;;;;;;;;;;5099043;28;20101;-81
2021/05/14 13:38:06;;;;;;;4.97;1.38;;;;;;;;;;5098099;28;20030;-81
2021/05/14 13:40:33;;;;;;;4.78;2.35;;;;;;;;;;5098126;28;20027;-80
2021/05/14 13:42:59;;;;;;;4.63;1.98;;;;;;;;;;5097646;28;20069;-80
2021/05/14 13:45:25;;;;;;;5.80;2.00;;;;;;;;;;5098990;28;20410;-81
2021/05/14 13:47:51;;;;;;;5.30;1.85;;;;;;;;;;5098672;28;20055;-81
2021/05/14 13:50:17;;;;;;;5.95;1.65;;;;;;;;;;5099067;28;20085;-80
2021/05/14 13:52:44;;;;;;;4.40;1.85;;;;;;;;;;5098837;28;20024;-81
2021/05/14 13:55:10;;;;;;;3.78;1.38;;;;;;;;;;5098698;28;20055;-80
2021/05/14 13:57:36;;;;;;;5.78;3.10;;;;;;;;;;5098892;28;20024;-81
2021/05/14 14:00:04;;;;;;;12.10;1.65;;;;;;;;;;5098675;28;20020;-81
2021/05/14 14:02:30;;;;;;;37.42;16.23;;;;;;;;;;5097232;28;20034;-81
2021/05/14 14:04:56;;;;;;;7.68;3.20;;;;;;;;;;5098476;28;20306;-81
2021/05/14 14:07:22;;;;;;;6.85;1.65;;;;;;;;;;5098827;28;20024;-81
2021/05/14 14:09:48;;;;;;;4.50;1.67;;;;;;;;;;5098497;28;20020;-81
2021/05/14 14:12:14;;;;;;;8.52;2.88;;;;;;;;;;5098558;28;20031;-81
2021/05/14 14:14:40;;;;;;;5.10;1.70;;;;;;;;;;5098386;28;20111;-81
2021/05/14 14:17:06;;;;;;;5.38;1.80;;;;;;;;;;5098405;28;20020;-81
2021/05/14 14:19:32;;;;;;;5.78;1.80;;;;;;;;;;5098110;28;20378;-81
2021/05/14 14:21:58;;;;;;;8.10;2.20;;;;;;;;;;5098243;28;20139;-81
2021/05/14 14:24:25;;;;;;;6.45;2.85;;;;;;;;;;5098682;28;20297;-79
2021/05/14 14:26:51;;;;;;;2.75;1.30;;;;;;;;;;5096732;28;20064;-80
2021/05/14 14:29:17;;;;;;;7.78;2.53;;;;;;;;;;5098045;28;20032;-80
2021/05/14 14:31:43;;;;;;;2.42;1.35;;;;;;;;;;5098174;28;20054;-80
2021/05/14 14:34:10;;;;;;;2.80;1.02;;;;;;;;;;5096853;28;20050;-80
2021/05/14 14:36:36;;;;;;;4.35;1.33;;;;;;;;;;5098160;28;20061;-80
2021/05/14 14:39:03;;;;;;;3.22;1.58;;;;;;;;;;5098050;28;20046;-79
2021/05/14 14:41:29;;;;;;;2.08;1.02;;;;;;;;;;5096569;28;20016;-79
2021/05/14 14:43:55;;;;;;;4.25;1.52;;;;;;;;;;5097943;28;20032;-80
2021/05/14 14:46:21;;;;;;;4.97;1.65;;;;;;;;;;5097905;28;20031;-80
2021/05/14 14:48:47;;;;;;;4.53;1.60;;;;;;;;;;5097629;28;20051;-81
2021/05/14 14:51:13;;;;;;;5.82;1.73;;;;;;;;;;5097846;28;20103;-80
2021/05/14 14:53:40;;;;;;;2.63;1.40;;;;;;;;;;5097614;28;20026;-80
2021/05/14 14:56:07;;;;;;;10.48;4.32;;;;;;;;;;5097649;28;20028;-80
2021/05/14 14:58:34;;;;;;;4.18;1.38;;;;;;;;;;5097605;28;20103;-80
2021/05/14 15:01:00;;;;;;;4.15;1.63;;;;;;;;;;5097589;28;20032;-81